createdAt,value
2023-02-13T00:04:23.811Z,1.99
2023-02-13T00:09:29.682Z,1.70
2023-02-13T00:14:36.276Z,1.94
2023-02-13T00:19:40.934Z,2.49
2023-02-13T00:24:47.023Z,2.39
2023-02-13T00:29:51.551Z,2.43
2023-02-13T00:34:58.276Z,2.96
2023-02-13T00:40:04.265Z,3.56
2023-02-13T00:45:09.949Z,3.23
2023-02-13T00:50:14.849Z,2.89
2023-02-13T00:55:20.925Z,2.92
2023-02-13T01:00:25.527Z,2.75
2023-02-13T01:05:30.203Z,2.93
2023-02-13T01:10:36.102Z,2.96
2023-02-13T01:15:41.151Z,3.36
2023-02-13T01:20:46.103Z,4.43
2023-02-13T01:25:52.425Z,3.80
2023-02-13T01:30:58.393Z,4.09
2023-02-13T01:36:08.033Z,3.32
2023-02-13T01:41:15.605Z,3.51
2023-02-13T01:46:25.532Z,1.33
2023-02-13T01:51:35.124Z,1.17
2023-02-13T01:56:44.586Z,1.01
2023-02-13T02:01:49.590Z,1.39
2023-02-13T02:06:57.817Z,1.93
2023-02-13T02:12:11.990Z,2.05
2023-02-13T02:17:17.665Z,2.61
2023-02-13T02:23:07.233Z,2.17
2023-02-13T02:28:59.646Z,2.91
2023-02-13T02:34:15.850Z,1.86
2023-02-13T02:39:34.120Z,2.25
2023-02-13T02:44:45.071Z,3.11
2023-02-13T02:50:02.132Z,2.63
2023-02-13T02:55:12.384Z,1.89
2023-02-13T03:00:47.354Z,2.78
2023-02-13T03:06:14.936Z,2.52
2023-02-13T03:11:36.860Z,2.77
2023-02-13T03:16:59.942Z,2.32
2023-02-13T03:22:20.976Z,3.35
2023-02-13T03:27:52.966Z,2.96
2023-02-13T03:33:08.549Z,3.10
2023-02-13T03:38:22.390Z,3.27
2023-02-13T03:43:31.326Z,3.80
2023-02-13T03:48:58.325Z,2.95
2023-02-13T03:54:07.375Z,2.58
2023-02-13T03:59:19.973Z,2.83
2023-02-13T04:04:32.324Z,2.93
2023-02-13T04:09:41.912Z,2.36
2023-02-13T04:14:53.003Z,1.84
2023-02-13T04:19:57.754Z,2.66
2023-02-13T04:25:03.782Z,2.53
2023-02-13T04:30:09.506Z,2.90
2023-02-13T04:35:14.867Z,2.97
2023-02-13T04:40:20.933Z,2.80
2023-02-13T04:45:25.456Z,3.22
2023-02-13T04:50:30.056Z,3.26
2023-02-13T04:55:35.839Z,2.82
2023-02-13T05:00:40.290Z,3.00
2023-02-13T05:05:44.818Z,2.92
2023-02-13T05:10:50.631Z,2.78
2023-02-13T05:15:54.853Z,2.62
2023-02-13T05:21:16.705Z,2.78
2023-02-13T05:26:22.670Z,2.57
2023-02-13T05:31:27.361Z,2.36
2023-02-13T05:36:31.768Z,2.38
2023-02-13T05:41:37.789Z,2.53
2023-02-13T05:46:45.016Z,2.59
2023-02-13T05:51:50.073Z,2.22
2023-02-13T05:56:56.063Z,2.50
2023-02-13T06:02:00.097Z,2.44
2023-02-13T06:07:04.668Z,2.65
2023-02-13T06:12:10.480Z,2.33
2023-02-13T06:17:14.561Z,2.73
2023-02-13T06:22:19.065Z,2.36
2023-02-13T06:27:25.056Z,2.59
2023-02-13T06:32:29.206Z,2.67
2023-02-13T06:37:34.005Z,2.90
2023-02-13T06:42:39.822Z,2.91
2023-02-13T06:47:44.210Z,2.88
2023-02-13T06:52:49.574Z,3.00
2023-02-13T06:57:55.366Z,3.09
2023-02-13T07:03:04.165Z,3.29
2023-02-13T07:08:09.350Z,3.41
2023-02-13T07:13:15.361Z,3.13
2023-02-13T07:18:19.716Z,3.33
2023-02-13T07:23:24.029Z,3.27
2023-02-13T07:28:30.756Z,3.21
2023-02-13T07:33:35.902Z,3.17
2023-02-13T07:38:40.382Z,2.99
2023-02-13T07:43:46.179Z,3.06
2023-02-13T07:48:52.960Z,3.56
2023-02-13T07:53:57.660Z,3.47
2023-02-13T07:59:03.528Z,3.36
2023-02-13T08:04:07.767Z,3.33
2023-02-13T08:09:38.859Z,3.51
2023-02-13T08:14:45.376Z,3.41
2023-02-13T08:19:49.527Z,3.79
2023-02-13T08:24:54.338Z,3.83
2023-02-13T08:30:01.924Z,3.80
2023-02-13T08:35:07.209Z,3.63
2023-02-13T08:40:12.169Z,3.59
2023-02-13T08:45:18.352Z,3.77
2023-02-13T08:50:22.977Z,4.41
2023-02-13T08:55:28.502Z,4.07
2023-02-13T09:00:34.527Z,3.86
2023-02-13T09:05:38.879Z,4.15
2023-02-13T09:10:44.954Z,4.17
2023-02-13T09:15:51.111Z,4.36
2023-02-13T09:21:02.286Z,4.17
2023-02-13T09:26:08.896Z,4.15
2023-02-13T09:31:17.149Z,4.24
2023-02-13T09:36:24.194Z,4.30
2023-02-13T09:41:31.803Z,4.27
2023-02-13T09:46:39.982Z,4.27
2023-02-13T09:51:46.866Z,4.21
2023-02-13T09:57:00.744Z,4.25
2023-02-13T10:02:21.816Z,4.65
2023-02-13T10:07:38.500Z,4.37
2023-02-13T10:13:08.499Z,5.23
2023-02-13T10:18:18.469Z,4.73
2023-02-13T10:23:28.287Z,5.16
2023-02-13T10:28:39.181Z,5.07
2023-02-13T10:33:51.033Z,5.33
2023-02-13T10:38:58.686Z,5.24
2023-02-13T10:44:17.517Z,5.55
2023-02-13T10:49:38.283Z,5.51
2023-02-13T10:54:59.610Z,5.53
2023-02-13T11:00:12.930Z,5.75
2023-02-13T11:05:22.541Z,5.86
2023-02-13T11:10:28.646Z,5.85
2023-02-13T11:15:34.667Z,5.85
2023-02-13T11:20:44.537Z,6.14
2023-02-13T11:25:59.094Z,5.73
2023-02-13T11:31:15.784Z,5.48
2023-02-13T11:36:28.589Z,5.61
2023-02-13T11:41:40.698Z,5.90
2023-02-13T11:46:49.355Z,6.02
2023-02-13T11:51:58.093Z,6.09
2023-02-13T11:57:05.908Z,6.39
2023-02-13T12:02:17.604Z,5.91
2023-02-13T12:07:26.251Z,6.58
2023-02-13T12:12:42.149Z,6.54
2023-02-13T12:17:48.698Z,6.55
2023-02-13T12:23:04.014Z,6.83
2023-02-13T12:28:14.206Z,6.63
2023-02-13T12:33:33.593Z,6.80
2023-02-13T12:38:52.826Z,6.67
2023-02-13T12:44:23.428Z,7.58
2023-02-13T12:49:52.521Z,7.42
2023-02-13T12:55:15.270Z,6.56
2023-02-13T13:00:34.122Z,6.49
2023-02-13T13:06:08.876Z,6.33
2023-02-13T13:11:31.396Z,7.04
2023-02-13T13:16:46.920Z,6.88
2023-02-13T13:21:57.242Z,6.65
2023-02-13T13:27:04.667Z,7.28
2023-02-13T13:32:13.494Z,6.10
2023-02-13T13:37:25.607Z,5.35
2023-02-13T13:42:40.643Z,5.26
2023-02-13T13:48:02.940Z,5.39
2023-02-13T13:53:10.811Z,4.80
2023-02-13T13:58:24.995Z,5.11
2023-02-13T14:03:37.690Z,4.88
2023-02-13T14:08:59.849Z,5.26
2023-02-13T14:14:53.223Z,5.23
2023-02-13T14:19:58.906Z,5.43
2023-02-13T14:25:06.201Z,5.00
2023-02-13T14:30:30.050Z,5.10
2023-02-13T14:35:37.561Z,4.99
2023-02-13T14:40:51.346Z,5.13
2023-02-13T14:45:59.392Z,5.15
2023-02-13T14:51:05.723Z,4.59
2023-02-13T14:56:14.728Z,4.77
2023-02-13T15:01:29.378Z,4.94
2023-02-13T15:06:39.937Z,5.03
2023-02-13T15:11:45.584Z,4.69
2023-02-13T15:16:55.539Z,4.76
2023-02-13T15:22:02.214Z,4.43
2023-02-13T15:27:08.761Z,4.88
2023-02-13T15:32:21.812Z,4.54
2023-02-13T15:37:30.628Z,4.43
2023-02-13T15:42:35.781Z,4.79
2023-02-13T15:47:44.839Z,4.74
2023-02-13T15:52:49.732Z,4.61
2023-02-13T15:57:57.152Z,4.72
2023-02-13T16:03:06.040Z,4.58
2023-02-13T16:08:32.085Z,4.62
2023-02-13T16:13:36.599Z,4.47
2023-02-13T16:18:43.100Z,4.52
2023-02-13T16:23:47.527Z,4.65
2023-02-13T16:28:52.204Z,4.51
2023-02-13T16:33:57.982Z,4.93
2023-02-13T16:39:12.086Z,4.79
2023-02-13T16:44:29.109Z,4.84
2023-02-13T16:49:37.040Z,4.63
2023-02-13T16:54:51.456Z,4.65
2023-02-13T17:00:04.075Z,4.25
2023-02-13T17:05:22.717Z,4.37
2023-02-13T17:10:29.156Z,4.35
2023-02-13T17:15:34.063Z,4.45
2023-02-13T17:20:43.796Z,4.38
2023-02-13T17:25:49.670Z,4.19
2023-02-13T17:30:57.563Z,4.05
2023-02-13T17:36:03.715Z,4.02
2023-02-13T17:41:13.029Z,4.38
2023-02-13T17:46:17.433Z,4.46
2023-02-13T17:51:23.323Z,4.26
2023-02-13T17:56:27.429Z,4.14
2023-02-13T18:01:31.880Z,4.55
2023-02-13T18:06:37.728Z,3.74
2023-02-13T18:11:41.822Z,3.84
2023-02-13T18:16:46.197Z,3.52
2023-02-13T18:21:52.043Z,3.60
2023-02-13T18:26:56.715Z,3.83
2023-02-13T18:32:01.111Z,3.76
2023-02-13T18:37:07.791Z,3.48
2023-02-13T18:42:13.259Z,3.97
2023-02-13T18:47:18.210Z,3.64
2023-02-13T18:52:24.466Z,3.72
2023-02-13T18:57:28.817Z,4.57
2023-02-13T19:02:33.601Z,3.57
2023-02-13T19:07:39.500Z,3.57
2023-02-13T19:12:43.537Z,3.56
2023-02-13T19:17:48.416Z,3.42
2023-02-13T19:22:55.269Z,3.32
2023-02-13T19:27:59.722Z,3.70
2023-02-13T19:33:04.209Z,3.87
2023-02-13T19:38:10.215Z,3.72
2023-02-13T19:43:14.691Z,3.79
2023-02-13T19:48:19.314Z,4.22
2023-02-13T19:53:25.254Z,3.86
2023-02-13T19:58:30.004Z,3.92
2023-02-13T20:03:34.543Z,4.27
2023-02-13T20:08:42.885Z,3.93
2023-02-13T20:13:47.602Z,3.52
2023-02-13T20:18:52.397Z,4.27
2023-02-13T20:23:58.655Z,3.97
2023-02-13T20:29:03.654Z,3.81
2023-02-13T20:34:08.974Z,3.81
2023-02-13T20:39:15.127Z,3.77
2023-02-13T20:44:22.463Z,3.45
2023-02-13T20:49:27.380Z,3.45
2023-02-13T20:54:34.736Z,3.70
2023-02-13T20:59:39.511Z,4.11
2023-02-13T21:04:44.182Z,3.68
2023-02-13T21:09:50.295Z,4.09
2023-02-13T21:14:55.023Z,4.38
2023-02-13T21:19:59.507Z,4.00
2023-02-13T21:25:05.812Z,4.28
2023-02-13T21:30:11.422Z,3.98
2023-02-13T21:35:16.000Z,3.80
2023-02-13T21:40:22.037Z,3.17
2023-02-13T21:45:26.545Z,3.35
2023-02-13T21:50:31.142Z,3.54
2023-02-13T21:55:37.428Z,3.69
2023-02-13T22:00:42.040Z,3.21
2023-02-13T22:05:48.092Z,3.21
2023-02-13T22:10:58.595Z,3.19
2023-02-13T22:16:04.317Z,2.81
2023-02-13T22:21:09.943Z,2.68
2023-02-13T22:26:19.152Z,2.84
2023-02-13T22:31:25.835Z,2.82
2023-02-13T22:36:30.498Z,2.74
2023-02-13T22:41:36.686Z,2.59
2023-02-13T22:46:41.332Z,2.51
2023-02-13T22:51:46.144Z,2.45
2023-02-13T22:56:52.043Z,2.85
2023-02-13T23:01:56.286Z,2.92
2023-02-13T23:07:00.920Z,2.95
2023-02-13T23:12:24.360Z,2.43
2023-02-13T23:17:46.099Z,2.82
2023-02-13T23:22:51.016Z,2.74
2023-02-13T23:27:58.220Z,2.86
2023-02-13T23:33:02.711Z,2.91
2023-02-13T23:38:07.081Z,2.96
2023-02-13T23:43:12.925Z,2.55
2023-02-13T23:48:16.975Z,2.87
2023-02-13T23:53:21.350Z,3.19
2023-02-13T23:58:27.087Z,2.80
